Time;durP1;ratioP1;P1;durP2;ratioP2;P2;SDS_P1;SDS_P2;PMS_P1;PMS_P2;Temp;Humidity;BMP_temperature;BMP_pressure;BME280_temperature;BME280_humidity;BME280_pressure;Samples;Min_cycle;Max_cycle;Signal;HPM_P1;HPM_P2
2023/09/13 00:01:23;;;;;;;26.23;18.67;;;20.80;99.90;;;;;;4999281;28;20414;-79
2023/09/13 00:03:49;;;;;;;27.98;17.58;;;20.80;99.90;;;;;;4988668;28;20105;-79
2023/09/13 00:06:15;;;;;;;24.55;16.60;;;20.80;99.90;;;;;;4988663;28;20030;-80
2023/09/13 00:08:40;;;;;;;24.90;16.60;;;20.80;99.90;;;;;;4988897;28;20485;-80
2023/09/13 00:11:06;;;;;;;26.75;15.98;;;20.70;99.90;;;;;;4986750;28;20030;-81
2023/09/13 00:13:33;;;;;;;27.58;16.52;;;20.70;99.90;;;;;;4994152;28;20022;-80
2023/09/13 00:15:58;;;;;;;25.85;15.23;;;20.70;99.90;;;;;;4988694;28;20084;-80
2023/09/13 00:18:24;;;;;;;21.50;14.50;;;20.70;99.90;;;;;;4987150;28;20031;-80
2023/09/13 00:20:53;;;;;;;20.80;14.57;;;20.70;99.90;;;;;;4988178;28;20058;-79
2023/09/13 00:23:19;;;;;;;18.92;14.82;;;20.70;99.90;;;;;;4986901;28;20088;-81
2023/09/13 00:25:44;;;;;;;23.67;14.73;;;20.60;99.90;;;;;;4987572;28;20034;-81
2023/09/13 00:28:10;;;;;;;19.65;13.80;;;20.60;99.90;;;;;;4988337;28;20622;-80
2023/09/13 00:30:35;;;;;;;18.85;14.27;;;20.60;99.90;;;;;;4987598;28;20065;-80
2023/09/13 00:33:03;;;;;;;39.95;15.00;;;20.50;99.90;;;;;;4987335;28;20040;-81
2023/09/13 00:35:29;;;;;;;22.75;14.45;;;20.40;99.90;;;;;;4986439;28;20057;-81
2023/09/13 00:37:55;;;;;;;19.40;13.38;;;20.20;99.90;;;;;;4987885;28;20046;-80
2023/09/13 00:40:20;;;;;;;21.17;13.07;;;20.10;99.90;;;;;;4988092;28;20026;-80
2023/09/13 00:42:46;;;;;;;23.40;13.52;;;20.00;99.90;;;;;;4983209;28;20548;-80
2023/09/13 00:45:12;;;;;;;15.43;10.88;;;20.00;99.90;;;;;;4987319;28;20030;-80
2023/09/13 00:47:42;;;;;;;13.93;9.30;;;19.90;99.90;;;;;;4987554;28;20490;-79
2023/09/13 00:50:11;;;;;;;11.65;8.02;;;19.90;99.90;;;;;;4987540;28;20026;-79
2023/09/13 00:52:38;;;;;;;9.00;7.13;;;19.90;99.90;;;;;;4987885;28;20897;-79
2023/09/13 00:55:05;;;;;;;11.35;6.72;;;19.90;99.90;;;;;;4983806;28;20042;-78
2023/09/13 00:57:33;;;;;;;8.05;5.85;;;19.90;99.90;;;;;;4988885;28;20042;-78
2023/09/13 01:00:00;;;;;;;6.05;4.53;;;19.80;99.90;;;;;;4986410;28;20019;-79
2023/09/13 01:02:26;;;;;;;3.92;3.53;;;19.80;99.90;;;;;;4985161;28;20113;-78
2023/09/13 01:04:52;;;;;;;5.03;3.85;;;19.80;99.90;;;;;;4988851;28;20426;-79
2023/09/13 01:07:18;;;;;;;3.03;2.70;;;19.80;99.90;;;;;;4987404;28;20466;-79
2023/09/13 01:09:44;;;;;;;3.13;2.60;;;19.80;99.90;;;;;;4985861;28;20238;-79
2023/09/13 01:12:12;;;;;;;2.63;2.17;;;19.70;99.90;;;;;;4986555;28;20030;-79
2023/09/13 01:14:43;;;;;;;3.15;2.70;;;19.70;99.90;;;;;;4984167;28;20668;-79
2023/09/13 01:17:25;;;;;;;4.88;2.42;;;19.70;99.90;;;;;;4986859;28;20081;-78
2023/09/13 01:20:38;;;;;;;4.50;2.20;;;19.70;99.90;;;;;;4989045;28;20433;-78
2023/09/13 01:23:27;;;;;;;4.70;2.83;;;19.70;99.90;;;;;;4978133;28;20069;-79
2023/09/13 01:26:01;;;;;;;3.85;2.78;;;19.70;99.90;;;;;;4986884;28;20109;-79
2023/09/13 01:28:40;;;;;;;3.17;2.88;;;19.70;99.90;;;;;;4988631;28;20035;-81
2023/09/13 01:31:08;;;;;;;3.45;2.92;;;19.70;99.90;;;;;;4990503;28;20034;-80
2023/09/13 01:33:34;;;;;;;3.28;2.72;;;19.70;99.90;;;;;;4989080;28;20033;-80
2023/09/13 01:36:00;;;;;;;5.65;2.85;;;19.60;99.90;;;;;;4990665;28;20023;-80
2023/09/13 01:38:27;;;;;;;3.10;2.78;;;19.60;99.90;;;;;;4986443;28;20026;-80
2023/09/13 01:41:17;;;;;;;3.72;2.40;;;19.60;99.90;;;;;;4989074;28;20102;-80
2023/09/13 01:43:44;;;;;;;3.35;2.88;;;19.60;99.90;;;;;;4988785;28;20030;-80
2023/09/13 01:46:15;;;;;;;5.88;3.17;;;19.60;99.90;;;;;;4989174;28;20110;-80
2023/09/13 01:48:41;;;;;;;3.15;2.90;;;19.60;99.90;;;;;;4987386;28;20030;-80
2023/09/13 01:51:08;;;;;;;3.72;2.75;;;19.60;99.90;;;;;;4990298;28;20109;-80
2023/09/13 01:53:45;;;;;;;3.45;3.00;;;19.70;99.90;;;;;;4991339;28;20757;-80
2023/09/13 01:56:11;;;;;;;5.13;3.00;;;19.70;99.90;;;;;;4988340;28;20463;-80
2023/09/13 01:58:37;;;;;;;4.63;2.47;;;19.80;99.90;;;;;;4987991;28;20037;-80
2023/09/13 02:01:02;;;;;;;4.13;2.55;;;19.80;99.90;;;;;;4986182;28;20109;-81
2023/09/13 02:03:28;;;;;;;4.22;3.60;;;19.80;99.90;;;;;;4989439;28;20687;-80
2023/09/13 02:05:53;;;;;;;3.88;2.78;;;19.90;99.90;;;;;;4987525;28;20029;-80
2023/09/13 02:08:19;;;;;;;3.08;2.65;;;19.80;99.90;;;;;;4981898;28;20027;-80
2023/09/13 02:10:48;;;;;;;3.22;2.92;;;19.90;99.90;;;;;;4985670;28;20372;-80
2023/09/13 02:13:14;;;;;;;3.65;2.42;;;19.90;99.90;;;;;;4979506;28;20058;-80
2023/09/13 02:15:40;;;;;;;4.35;2.88;;;19.80;99.90;;;;;;4986054;28;20031;-80
2023/09/13 02:18:06;;;;;;;4.82;2.85;;;19.80;99.90;;;;;;4987468;28;20018;-80
2023/09/13 02:20:32;;;;;;;3.47;2.55;;;19.80;99.90;;;;;;4988174;28;20015;-79
2023/09/13 02:22:57;;;;;;;3.70;2.90;;;19.80;99.90;;;;;;4985180;28;20084;-79
2023/09/13 02:25:23;;;;;;;2.80;2.58;;;19.80;99.90;;;;;;4989074;28;20019;-78
2023/09/13 02:27:49;;;;;;;3.45;3.13;;;19.80;99.90;;;;;;4986209;28;20094;-78
2023/09/13 02:30:14;;;;;;;4.68;2.83;;;19.80;99.90;;;;;;4985520;28;20037;-78
2023/09/13 02:32:41;;;;;;;5.70;2.95;;;19.80;99.90;;;;;;4986639;28;20120;-79
2023/09/13 02:35:07;;;;;;;3.70;2.95;;;19.70;99.90;;;;;;4987419;28;20378;-78
2023/09/13 02:37:33;;;;;;;3.20;2.90;;;19.70;99.90;;;;;;4987006;28;20026;-78
2023/09/13 02:39:59;;;;;;;4.53;2.83;;;19.70;99.90;;;;;;4985293;28;20018;-78
2023/09/13 02:42:24;;;;;;;3.50;2.80;;;19.70;99.90;;;;;;4987809;28;20035;-78
2023/09/13 02:44:50;;;;;;;3.42;3.13;;;19.70;99.90;;;;;;4988370;28;20026;-80
2023/09/13 02:47:16;;;;;;;3.28;2.97;;;19.60;99.90;;;;;;4986399;28;20049;-80
2023/09/13 02:49:42;;;;;;;4.07;3.22;;;19.60;99.90;;;;;;4986779;28;20483;-80
2023/09/13 02:52:07;;;;;;;8.18;2.97;;;19.60;99.90;;;;;;4987034;28;20033;-80
2023/09/13 02:54:34;;;;;;;2.90;2.67;;;19.60;99.90;;;;;;4988005;28;20026;-80
2023/09/13 02:57:00;;;;;;;3.58;3.25;;;19.60;99.90;;;;;;4989393;28;20018;-80
2023/09/13 02:59:26;;;;;;;3.05;2.50;;;19.60;99.90;;;;;;4987898;28;20018;-80
2023/09/13 03:01:51;;;;;;;3.35;2.90;;;19.60;99.90;;;;;;4988327;28;20101;-80
2023/09/13 03:04:17;;;;;;;4.10;3.33;;;19.60;99.90;;;;;;4988423;28;20038;-80
2023/09/13 03:06:43;;;;;;;11.05;4.00;;;19.60;99.90;;;;;;4987179;28;20038;-80
2023/09/13 03:09:09;;;;;;;4.93;3.65;;;19.70;99.90;;;;;;4986713;28;20049;-79
2023/09/13 03:11:35;;;;;;;5.85;3.75;;;19.60;99.90;;;;;;4986286;28;20030;-80
2023/09/13 03:14:01;;;;;;;5.70;3.28;;;19.60;99.90;;;;;;4983570;28;20022;-79
2023/09/13 03:16:27;;;;;;;4.60;3.70;;;19.60;99.90;;;;;;4980225;28;20030;-79
2023/09/13 03:18:54;;;;;;;8.50;3.95;;;19.60;99.90;;;;;;4983772;28;20101;-79
2023/09/13 03:21:20;;;;;;;4.75;3.50;;;19.60;99.90;;;;;;4987363;28;20038;-81
2023/09/13 03:23:48;;;;;;;5.47;3.45;;;19.60;99.90;;;;;;4983590;28;20471;-80
2023/09/13 03:26:23;;;;;;;5.45;3.67;;;19.60;99.90;;;;;;4989959;28;20014;-79
2023/09/13 03:28:53;;;;;;;3.90;3.58;;;19.60;99.90;;;;;;4989177;28;20061;-79
2023/09/13 03:31:21;;;;;;;4.20;3.80;;;19.60;99.90;;;;;;5006322;28;20478;-79
2023/09/13 03:33:48;;;;;;;3.58;3.28;;;19.50;99.90;;;;;;4996406;28;20041;-79
2023/09/13 03:36:14;;;;;;;4.18;3.45;;;19.40;99.90;;;;;;4990407;28;20478;-80
2023/09/13 03:38:41;;;;;;;6.35;4.32;;;19.40;99.90;;;;;;4988391;28;20109;-80
2023/09/13 03:41:08;;;;;;;4.55;4.05;;;19.30;99.90;;;;;;4990322;28;20466;-79
2023/09/13 03:43:34;;;;;;;10.00;4.22;;;19.30;99.90;;;;;;4988802;28;20061;-80
2023/09/13 03:46:00;;;;;;;4.72;4.07;;;19.20;99.90;;;;;;4990213;28;20125;-79
2023/09/13 03:48:26;;;;;;;5.00;4.10;;;19.30;99.90;;;;;;4988544;28;20026;-79
2023/09/13 03:50:53;;;;;;;5.43;4.38;;;19.30;99.90;;;;;;4992667;28;20569;-80
2023/09/13 03:53:21;;;;;;;4.22;3.75;;;19.30;99.90;;;;;;4987946;28;20026;-80
2023/09/13 03:55:49;;;;;;;6.53;4.28;;;19.30;99.90;;;;;;4989418;28;20596;-80
2023/09/13 03:58:15;;;;;;;4.50;3.60;;;19.30;99.90;;;;;;4987564;28;20061;-81
2023/09/13 04:00:40;;;;;;;7.25;4.07;;;19.30;99.90;;;;;;4985579;28;20117;-80
2023/09/13 04:03:06;;;;;;;6.28;4.30;;;19.30;99.90;;;;;;4987604;28;20042;-80
2023/09/13 04:05:34;;;;;;;4.55;3.80;;;19.20;99.90;;;;;;4984344;28;20124;-80
2023/09/13 04:08:01;;;;;;;4.70;4.10;;;19.30;99.90;;;;;;4988893;28;20364;-80
2023/09/13 04:10:28;;;;;;;6.50;4.05;;;19.30;99.90;;;;;;4987269;28;20026;-80
2023/09/13 04:12:54;;;;;;;6.00;4.63;;;19.30;99.90;;;;;;4988579;28;20029;-80
2023/09/13 04:15:20;;;;;;;8.77;4.47;;;19.30;99.90;;;;;;4990984;28;20445;-80
2023/09/13 04:17:48;;;;;;;6.60;3.70;;;19.30;99.90;;;;;;4992123;28;20490;-80
2023/09/13 04:20:14;;;;;;;5.47;4.10;;;19.30;99.90;;;;;;4994737;28;20026;-79
2023/09/13 04:22:39;;;;;;;4.80;4.30;;;19.30;99.90;;;;;;5011085;28;20038;-79
2023/09/13 04:25:06;;;;;;;4.38;3.70;;;19.20;99.90;;;;;;5014018;28;20069;-79
2023/09/13 04:27:32;;;;;;;5.15;3.85;;;19.20;99.90;;;;;;5012178;28;20045;-79
2023/09/13 04:29:57;;;;;;;7.13;3.97;;;19.20;99.90;;;;;;4990546;28;20034;-80
2023/09/13 04:32:24;;;;;;;4.03;3.72;;;19.30;99.90;;;;;;4987580;28;20026;-80
2023/09/13 04:34:50;;;;;;;3.90;3.50;;;19.30;99.90;;;;;;4985948;28;20653;-79
2023/09/13 04:37:16;;;;;;;4.53;4.05;;;19.30;99.90;;;;;;4987420;28;20379;-80
2023/09/13 04:39:42;;;;;;;4.47;3.60;;;19.30;99.90;;;;;;4987810;28;20035;-80
2023/09/13 04:42:07;;;;;;;5.70;4.40;;;19.30;99.90;;;;;;4984016;28;20027;-80
2023/09/13 04:44:35;;;;;;;5.40;4.38;;;19.30;99.90;;;;;;4987475;28;20022;-80
2023/09/13 04:47:01;;;;;;;6.72;4.38;;;19.40;99.90;;;;;;4988535;28;20081;-80
2023/09/13 04:49:27;;;;;;;12.95;4.07;;;19.40;99.90;;;;;;4988874;28;20026;-80
2023/09/13 04:51:54;;;;;;;6.93;4.47;;;19.40;99.90;;;;;;4987393;28;20038;-80
2023/09/13 04:54:22;;;;;;;6.82;4.32;;;19.40;99.90;;;;;;4987501;28;20029;-80
2023/09/13 04:56:52;;;;;;;6.38;4.05;;;19.40;99.90;;;;;;4985637;28;20022;-81
2023/09/13 04:59:18;;;;;;;5.75;4.50;;;19.50;99.90;;;;;;4986348;28;20487;-80
2023/09/13 05:01:44;;;;;;;10.23;6.07;;;19.40;99.90;;;;;;4985018;28;20068;-81
2023/09/13 05:04:10;;;;;;;13.00;6.53;;;19.40;99.90;;;;;;4987291;28;20030;-81
2023/09/13 05:06:36;;;;;;;15.15;7.28;;;19.40;99.90;;;;;;4984931;28;20494;-80
2023/09/13 05:09:02;;;;;;;16.40;7.85;;;19.40;99.90;;;;;;4986295;28;20030;-81
2023/09/13 05:11:27;;;;;;;12.73;7.80;;;19.40;99.90;;;;;;4987898;28;20081;-81
2023/09/13 05:14:13;;;;;;;16.55;9.02;;;19.50;99.90;;;;;;4983783;28;20468;-84
2023/09/13 05:16:39;;;;;;;20.23;9.15;;;19.50;99.90;;;;;;4987468;28;20054;-81
2023/09/13 05:19:05;;;;;;;18.60;8.68;;;19.60;99.90;;;;;;4985999;28;20096;-82
2023/09/13 05:21:31;;;;;;;21.25;9.95;;;19.60;99.90;;;;;;4986862;28;20030;-82
2023/09/13 05:23:57;;;;;;;19.35;9.73;;;19.60;99.90;;;;;;4987335;28;20040;-81
2023/09/13 05:26:22;;;;;;;23.02;10.73;;;19.60;99.90;;;;;;4986583;28;20101;-82
2023/09/13 05:28:48;;;;;;;22.25;10.88;;;19.60;99.90;;;;;;4985711;28;20077;-82
2023/09/13 05:31:14;;;;;;;22.85;10.93;;;19.60;99.90;;;;;;4982449;28;20046;-82
2023/09/13 05:33:40;;;;;;;28.13;12.52;;;19.60;99.90;;;;;;4984644;28;20387;-80
2023/09/13 05:36:09;;;;;;;25.83;11.82;;;19.50;99.90;;;;;;4983421;28;20080;-82
2023/09/13 05:38:35;;;;;;;21.42;11.95;;;19.50;99.90;;;;;;4984686;28;20015;-83
2023/09/13 05:41:11;;;;;;;29.20;13.10;;;19.50;99.90;;;;;;4986932;28;20387;-82
2023/09/13 05:43:39;;;;;;;29.80;12.65;;;19.60;99.90;;;;;;4984230;28;20026;-80
2023/09/13 05:46:08;;;;;;;28.50;13.35;;;19.60;99.90;;;;;;4978121;28;20031;-80
2023/09/13 05:48:34;;;;;;;28.48;13.50;;;19.60;99.90;;;;;;4983176;28;20486;-80
2023/09/13 05:51:00;;;;;;;25.92;14.52;;;19.60;99.90;;;;;;4984482;28;20125;-80
2023/09/13 05:53:26;;;;;;;26.50;14.50;;;19.50;99.90;;;;;;4984984;28;21570;-80
2023/09/13 05:55:55;;;;;;;24.77;13.50;;;19.50;99.90;;;;;;4986763;28;20022;-80
2023/09/13 05:58:21;;;;;;;27.60;14.32;;;19.50;99.90;;;;;;4988787;28;20030;-80
2023/09/13 06:00:48;;;;;;;29.52;13.95;;;19.50;99.90;;;;;;4987310;28;20448;-80
2023/09/13 06:03:16;;;;;;;31.05;14.57;;;19.50;99.90;;;;;;4987960;28;20033;-81
2023/09/13 06:05:42;;;;;;;29.50;13.93;;;19.60;99.90;;;;;;4987983;28;20386;-80
2023/09/13 06:08:08;;;;;;;35.20;13.30;;;19.60;99.90;;;;;;4989391;28;20110;-79
2023/09/13 06:10:33;;;;;;;29.52;15.70;;;19.50;99.90;;;;;;4988176;28;20098;-79
2023/09/13 06:12:59;;;;;;;31.60;15.35;;;19.50;99.90;;;;;;4989270;28;20026;-78
2023/09/13 06:15:24;;;;;;;31.90;16.13;;;19.50;99.90;;;;;;4988723;28;20022;-79
2023/09/13 06:17:54;;;;;;;30.85;14.10;;;19.50;99.90;;;;;;4986028;28;20113;-79
2023/09/13 06:20:21;;;;;;;37.35;14.15;;;19.40;99.90;;;;;;4989524;28;20034;-79
2023/09/13 06:22:46;;;;;;;36.85;15.07;;;19.50;99.90;;;;;;4985490;28;20039;-79
2023/09/13 06:25:17;;;;;;;29.15;13.85;;;19.40;99.90;;;;;;4985079;28;20026;-79
2023/09/13 06:27:45;;;;;;;25.40;12.95;;;19.40;99.90;;;;;;4985244;28;20076;-79
2023/09/13 06:30:13;;;;;;;26.73;13.45;;;19.50;99.90;;;;;;4984727;28;20561;-80
2023/09/13 06:32:39;;;;;;;30.15;14.02;;;19.50;99.90;;;;;;4986592;28;20482;-79
2023/09/13 06:35:05;;;;;;;33.03;14.30;;;19.50;99.90;;;;;;4986530;28;20022;-78
2023/09/13 06:37:31;;;;;;;27.50;13.07;;;19.60;99.90;;;;;;4987573;28;20026;-80
2023/09/13 06:39:57;;;;;;;30.58;11.98;;;19.50;99.90;;;;;;4987941;28;20026;-81
2023/09/13 06:42:22;;;;;;;33.50;13.65;;;19.50;99.90;;;;;;4987731;28;20069;-82
2023/09/13 06:44:48;;;;;;;35.22;13.70;;;19.50;99.90;;;;;;4988050;28;20027;-81
2023/09/13 06:47:13;;;;;;;35.33;14.05;;;19.50;99.90;;;;;;4986077;28;20356;-81
2023/09/13 06:49:39;;;;;;;34.88;14.73;;;19.50;99.90;;;;;;4986680;28;20022;-78
2023/09/13 06:52:05;;;;;;;33.58;13.93;;;19.50;99.90;;;;;;4985547;28;20028;-80
2023/09/13 06:54:32;;;;;;;30.92;12.90;;;19.50;99.90;;;;;;4986830;28;20030;-78
2023/09/13 06:56:58;;;;;;;32.22;14.27;;;19.40;99.90;;;;;;4986205;28;20434;-78
2023/09/13 06:59:24;;;;;;;37.75;12.52;;;19.40;99.90;;;;;;4988086;28;20025;-78
2023/09/13 07:01:52;;;;;;;39.08;14.75;;;19.50;99.90;;;;;;4987705;28;20030;-78
2023/09/13 07:04:18;;;;;;;28.60;12.38;;;19.50;99.90;;;;;;4987715;28;20062;-78
2023/09/13 07:06:48;;;;;;;26.83;12.68;;;19.50;99.90;;;;;;4987644;28;20034;-78
2023/09/13 07:09:14;;;;;;;31.27;14.43;;;19.50;99.90;;;;;;4986305;28;20030;-78
2023/09/13 07:11:39;;;;;;;39.42;14.90;;;19.50;99.90;;;;;;4987733;28;20433;-79
2023/09/13 07:14:05;;;;;;;29.40;13.45;;;19.50;99.90;;;;;;4987969;28;20030;-82
2023/09/13 07:16:33;;;;;;;29.45;13.40;;;19.60;99.90;;;;;;4986533;28;20034;-80
2023/09/13 07:18:59;;;;;;;31.95;13.95;;;19.60;99.90;;;;;;4975048;28;20027;-79
2023/09/13 07:21:24;;;;;;;29.55;13.63;;;19.60;99.90;;;;;;4985831;28;20030;-79
2023/09/13 07:23:51;;;;;;;28.92;12.63;;;19.70;99.90;;;;;;4987923;28;20026;-79
2023/09/13 07:26:16;;;;;;;25.13;11.75;;;19.80;99.90;;;;;;4984029;28;20046;-79
2023/09/13 07:28:42;;;;;;;27.67;13.38;;;19.90;99.90;;;;;;4985512;28;20578;-79
2023/09/13 07:31:08;;;;;;;33.58;12.40;;;19.90;99.90;;;;;;4985018;28;20113;-78
2023/09/13 07:33:34;;;;;;;29.60;12.15;;;20.00;99.90;;;;;;4985690;28;20026;-78
2023/09/13 07:36:00;;;;;;;30.30;13.00;;;19.90;99.90;;;;;;4987106;28;20097;-78
2023/09/13 07:38:25;;;;;;;27.55;12.25;;;20.00;99.90;;;;;;4978693;28;20054;-78
2023/09/13 07:40:51;;;;;;;31.50;13.15;;;20.00;99.90;;;;;;4979076;28;20088;-79
2023/09/13 07:43:17;;;;;;;32.25;13.60;;;20.20;99.90;;;;;;4984633;28;20083;-79
2023/09/13 07:45:43;;;;;;;25.02;11.27;;;20.30;99.90;;;;;;4986931;28;20477;-78
2023/09/13 07:48:08;;;;;;;33.53;12.55;;;20.20;99.90;;;;;;4983783;28;20035;-79
2023/09/13 07:50:40;;;;;;;23.23;11.85;;;20.20;99.90;;;;;;4985793;28;20026;-78
2023/09/13 07:53:07;;;;;;;31.80;13.53;;;20.20;99.90;;;;;;5000805;28;20034;-79
2023/09/13 07:55:33;;;;;;;25.65;12.15;;;20.30;99.90;;;;;;4985027;28;20479;-79
2023/09/13 07:58:00;;;;;;;25.17;12.93;;;20.30;99.90;;;;;;4986191;28;20026;-78
2023/09/13 08:00:25;;;;;;;30.58;12.18;;;20.40;99.90;;;;;;4984310;28;20491;-79
2023/09/13 08:02:51;;;;;;;27.08;12.25;;;20.30;99.90;;;;;;4979943;28;20046;-80
2023/09/13 08:05:17;;;;;;;26.65;12.55;;;20.20;99.90;;;;;;4981699;28;20022;-78
2023/09/13 08:07:44;;;;;;;30.45;12.98;;;20.20;99.90;;;;;;4987117;28;20026;-79
2023/09/13 08:10:10;;;;;;;29.00;13.18;;;20.20;99.90;;;;;;4986225;28;20019;-79
2023/09/13 08:12:36;;;;;;;25.10;13.07;;;20.20;99.90;;;;;;4985270;28;20445;-78
2023/09/13 08:15:03;;;;;;;25.10;12.68;;;20.30;99.90;;;;;;4988181;28;20371;-78
2023/09/13 08:17:29;;;;;;;29.10;12.27;;;20.30;99.90;;;;;;4989759;28;20018;-78
2023/09/13 08:19:56;;;;;;;24.30;11.90;;;20.40;99.90;;;;;;4986311;28;20096;-80
2023/09/13 08:22:21;;;;;;;26.63;12.43;;;20.50;99.90;;;;;;4988171;28;20038;-80
2023/09/13 08:24:49;;;;;;;19.17;7.47;;;20.60;99.90;;;;;;4987631;28;20026;-80
2023/09/13 08:27:15;;;;;;;5.40;3.03;;;20.40;99.90;;;;;;4984573;28;20031;-80
2023/09/13 08:29:42;;;;;;;2.67;1.83;;;19.90;99.90;;;;;;4989305;28;20046;-80
2023/09/13 08:32:08;;;;;;;2.17;1.50;;;19.30;99.90;;;;;;4983138;28;20026;-80
2023/09/13 08:34:35;;;;;;;1.13;1.00;;;19.00;99.90;;;;;;4989686;28;20034;-80
2023/09/13 08:37:01;;;;;;;0.75;0.75;;;18.50;99.90;;;;;;4990093;28;20083;-80
2023/09/13 08:39:26;;;;;;;1.20;1.10;;;18.20;99.90;;;;;;4988341;28;20327;-80
2023/09/13 08:41:53;;;;;;;1.02;0.82;;;18.10;99.90;;;;;;4990741;28;20049;-80
2023/09/13 08:44:20;;;;;;;2.83;1.10;;;17.70;99.90;;;;;;4990203;28;20022;-80
2023/09/13 08:46:50;;;;;;;0.85;0.85;;;17.70;99.90;;;;;;4995726;28;20053;-80
2023/09/13 08:49:20;;;;;;;1.42;1.00;;;17.50;99.90;;;;;;5001495;28;20023;-81
2023/09/13 08:51:49;;;;;;;0.90;0.90;;;17.50;99.90;;;;;;5012986;28;20026;-81
2023/09/13 08:54:16;;;;;;;0.90;0.90;;;17.50;99.90;;;;;;5013463;28;20011;-82
2023/09/13 08:56:42;;;;;;;0.90;0.90;;;17.40;99.90;;;;;;5010800;28;20045;-81
2023/09/13 08:59:09;;;;;;;0.80;0.80;;;17.50;99.90;;;;;;5008818;28;20045;-80
2023/09/13 09:01:36;;;;;;;0.98;0.98;;;17.50;99.90;;;;;;4993293;28;21135;-81
2023/09/13 09:04:03;;;;;;;1.35;1.27;;;17.60;99.90;;;;;;4988752;28;20137;-80
2023/09/13 09:06:31;;;;;;;1.48;1.08;;;17.60;99.90;;;;;;4990461;28;20037;-80
2023/09/13 09:08:57;;;;;;;0.75;0.70;;;17.70;99.90;;;;;;4990562;28;20022;-81
2023/09/13 09:11:29;;;;;;;0.70;0.60;;;17.70;99.90;;;;;;4990772;28;20023;-80
2023/09/13 09:13:57;;;;;;;1.33;0.70;;;17.70;99.90;;;;;;4987772;28;21014;-80
2023/09/13 09:16:24;;;;;;;0.50;0.50;;;17.70;99.90;;;;;;4998335;28;20037;-80
2023/09/13 09:18:52;;;;;;;5.22;2.15;;;17.80;99.90;;;;;;4985714;28;20037;-81
2023/09/13 09:21:20;;;;;;;24.67;8.82;;;17.80;99.90;;;;;;4978571;28;20435;-81
2023/09/13 09:23:46;;;;;;;0.75;0.75;;;18.00;99.90;;;;;;4978523;28;20026;-79
2023/09/13 09:26:12;;;;;;;0.80;0.80;;;18.00;99.90;;;;;;4985796;28;20037;-79
2023/09/13 09:28:37;;;;;;;0.82;0.82;;;18.10;99.90;;;;;;4988212;28;20080;-80
2023/09/13 09:31:03;;;;;;;0.65;0.60;;;18.10;99.90;;;;;;4987666;28;20662;-79
2023/09/13 09:33:31;;;;;;;0.85;0.75;;;18.20;99.90;;;;;;4987728;28;20101;-79
2023/09/13 09:35:59;;;;;;;1.25;0.70;;;18.50;99.90;;;;;;4987263;28;20033;-80
2023/09/13 09:38:27;;;;;;;0.75;0.50;;;18.90;99.90;;;;;;4986932;28;20107;-80
2023/09/13 09:40:57;;;;;;;0.77;0.77;;;19.30;99.90;;;;;;4988499;28;20018;-80
2023/09/13 09:43:22;;;;;;;0.90;0.70;;;19.90;99.90;;;;;;4987370;28;20023;-81
2023/09/13 09:45:48;;;;;;;0.63;0.63;;;20.10;99.90;;;;;;4988253;28;20037;-80
2023/09/13 09:48:15;;;;;;;1.10;0.60;;;20.00;99.90;;;;;;4989325;28;20030;-79
2023/09/13 09:50:48;;;;;;;0.60;0.50;;;20.10;99.90;;;;;;4987511;28;20038;-81
2023/09/13 09:53:14;;;;;;;1.52;0.60;;;19.80;99.90;;;;;;4988520;28;20114;-81
2023/09/13 09:55:41;;;;;;;0.60;0.60;;;20.20;99.90;;;;;;4983510;28;20105;-82
2023/09/13 09:58:07;;;;;;;0.70;0.70;;;20.40;99.90;;;;;;4979445;28;20046;-81
2023/09/13 10:00:52;;;;;;;0.70;0.70;;;20.40;99.90;;;;;;4986029;28;20550;-81
2023/09/13 10:03:18;;;;;;;1.17;1.02;;;20.00;99.90;;;;;;4984956;28;20502;-84
2023/09/13 10:06:10;;;;;;;0.90;0.90;;;19.80;99.90;;;;;;4988481;28;20034;-84
2023/09/13 10:08:41;;;;;;;1.17;1.10;;;19.70;99.90;;;;;;4984253;28;20018;-82
2023/09/13 10:11:07;;;;;;;1.48;1.27;;;19.60;99.90;;;;;;4985687;28;20026;-82
2023/09/13 10:13:34;;;;;;;1.10;1.10;;;19.60;99.90;;;;;;4986311;28;20011;-82
2023/09/13 10:16:02;;;;;;;1.05;1.00;;;19.60;99.90;;;;;;4986818;28;20371;-81
2023/09/13 10:18:37;;;;;;;1.05;1.05;;;19.60;99.90;;;;;;5126966;23;20054;-80
2023/09/13 10:21:06;;;;;;;1.15;1.00;;;19.60;99.90;;;;;;4983842;28;20053;-80
2023/09/13 10:23:44;;;;;;;1.10;0.80;;;19.60;99.90;;;;;;4983840;28;20037;-84
2023/09/13 10:26:16;;;;;;;0.70;0.70;;;19.50;99.90;;;;;;5108404;23;21350;-83
2023/09/13 10:28:44;;;;;;;0.77;0.70;;;19.50;99.90;;;;;;4971473;28;20066;-88
2023/09/13 10:31:18;;;;;;;0.60;0.60;;;19.60;99.90;;;;;;4971301;28;20057;-87
2023/09/13 10:33:50;;;;;;;2.92;1.95;;;19.60;99.90;;;;;;4972782;28;20022;-85
2023/09/13 10:36:31;;;;;;;0.70;0.70;;;19.60;99.90;;;;;;4970530;28;20682;-83
2023/09/13 10:39:32;;;;;;;0.90;0.70;;;19.80;99.90;;;;;;4968168;28;20074;-82
2023/09/13 10:42:02;;;;;;;0.80;0.80;;;20.00;99.90;;;;;;4948039;28;20561;-82
2023/09/13 10:44:31;;;;;;;0.80;0.80;;;20.40;99.90;;;;;;4981251;28;20032;-89
2023/09/13 10:46:57;;;;;;;0.47;0.47;;;20.70;99.90;;;;;;4984573;28;20031;-83
2023/09/13 10:49:24;;;;;;;2.35;0.88;;;21.00;99.90;;;;;;4971471;28;20022;-83
2023/09/13 10:51:50;;;;;;;0.55;0.55;;;21.40;99.90;;;;;;4984689;28;20038;-84
2023/09/13 10:54:18;;;;;;;0.85;0.85;;;21.50;99.90;;;;;;4982990;28;20030;-85
2023/09/13 10:56:48;;;;;;;1.02;0.95;;;21.70;99.90;;;;;;4983561;28;20483;-83
2023/09/13 10:59:19;;;;;;;0.52;0.52;;;22.10;99.90;;;;;;4984113;28;20022;-83
2023/09/13 11:01:46;;;;;;;1.55;0.88;;;22.40;99.90;;;;;;4980082;28;20038;-84
2023/09/13 11:04:16;;;;;;;0.60;0.60;;;22.60;99.90;;;;;;4984221;28;20089;-84
2023/09/13 11:06:44;;;;;;;1.08;1.08;;;22.90;99.90;;;;;;4966731;28;20037;-83
2023/09/13 11:09:16;;;;;;;2.47;1.77;;;22.80;99.90;;;;;;4964190;28;20453;-80
2023/09/13 11:11:46;;;;;;;1.15;1.15;;;22.80;99.90;;;;;;4982977;28;20402;-80
2023/09/13 11:14:17;;;;;;;0.80;0.80;;;23.00;99.90;;;;;;4981539;28;20037;-81
2023/09/13 11:16:45;;;;;;;1.17;1.10;;;23.20;99.90;;;;;;4958121;28;20081;-82
2023/09/13 11:19:13;;;;;;;1.10;1.00;;;23.30;99.90;;;;;;4976415;28;20106;-82
2023/09/13 11:21:45;;;;;;;1.05;0.75;;;23.40;99.90;;;;;;4964137;28;20033;-81
2023/09/13 11:24:12;;;;;;;0.70;0.70;;;23.10;99.90;;;;;;4964317;28;20085;-81
2023/09/13 11:26:45;;;;;;;0.73;0.73;;;23.10;99.90;;;;;;4962329;28;20105;-81
2023/09/13 11:29:25;;;;;;;11.70;5.78;;;22.90;99.90;;;;;;4957171;28;20491;-80
2023/09/13 11:32:00;;;;;;;4.15;2.53;;;22.50;99.90;;;;;;4960622;28;20030;-81
2023/09/13 11:34:26;;;;;;;5.60;0.75;;;22.20;99.90;;;;;;4943726;28;20395;-81
2023/09/13 11:37:12;;;;;;;0.93;0.60;;;22.10;99.90;;;;;;4963084;28;20027;-82
2023/09/13 11:39:39;;;;;;;0.60;0.60;;;22.00;99.90;;;;;;4960185;28;20034;-82
2023/09/13 11:42:09;;;;;;;0.50;0.50;;;21.90;99.90;;;;;;4958565;28;20070;-82
2023/09/13 11:44:37;;;;;;;0.40;0.40;;;21.60;99.90;;;;;;4962955;28;20026;-82
2023/09/13 11:47:03;;;;;;;0.40;0.40;;;21.60;99.90;;;;;;4959334;28;20045;-82
2023/09/13 11:49:32;;;;;;;0.55;0.55;;;21.70;99.90;;;;;;4964090;28;20015;-82
2023/09/13 11:51:58;;;;;;;0.70;0.70;;;21.70;99.90;;;;;;4964150;28;20027;-82
2023/09/13 11:54:25;;;;;;;0.40;0.40;;;21.60;99.90;;;;;;4947751;28;20108;-82
2023/09/13 11:56:53;;;;;;;0.50;0.50;;;21.50;99.90;;;;;;4963974;28;20015;-82
2023/09/13 11:59:26;;;;;;;1.35;0.40;;;21.50;99.90;;;;;;4965426;28;20018;-82
2023/09/13 12:01:54;;;;;;;0.40;0.40;;;21.40;99.90;;;;;;4965121;28;20131;-82
2023/09/13 12:04:24;;;;;;;0.85;0.60;;;21.30;99.90;;;;;;4961655;28;20034;-82
2023/09/13 12:06:55;;;;;;;0.75;0.30;;;21.20;99.90;;;;;;4963972;28;20032;-83
2023/09/13 12:09:22;;;;;;;0.30;0.30;;;21.10;99.90;;;;;;4965569;28;20108;-82
2023/09/13 12:11:54;;;;;;;0.40;0.40;;;21.20;99.90;;;;;;4964943;28;20033;-82
2023/09/13 12:14:22;;;;;;;0.60;0.45;;;21.20;99.90;;;;;;4966276;28;20031;-82
2023/09/13 12:16:52;;;;;;;0.30;0.30;;;21.20;99.90;;;;;;4961954;28;20042;-80
2023/09/13 12:19:18;;;;;;;0.40;0.40;;;21.10;99.90;;;;;;4949714;28;20039;-80
2023/09/13 12:21:45;;;;;;;0.95;0.38;;;21.10;99.90;;;;;;4966045;28;20035;-81
2023/09/13 12:24:18;;;;;;;1.52;0.60;;;21.10;99.90;;;;;;4962509;28;20019;-80
2023/09/13 12:26:44;;;;;;;1.05;0.77;;;21.20;99.90;;;;;;4967065;28;20696;-80
2023/09/13 12:29:10;;;;;;;1.05;0.95;;;21.10;99.90;;;;;;4964396;28;20037;-80
2023/09/13 12:31:36;;;;;;;0.82;0.82;;;21.00;99.90;;;;;;4965308;28;20070;-79
2023/09/13 12:34:05;;;;;;;0.70;0.63;;;21.00;99.90;;;;;;4966253;28;20030;-81
2023/09/13 12:36:31;;;;;;;0.93;0.60;;;20.80;99.90;;;;;;4967194;28;20027;-80
2023/09/13 12:38:59;;;;;;;0.70;0.70;;;20.70;99.90;;;;;;4967128;28;20464;-80
2023/09/13 12:41:30;;;;;;;0.63;0.52;;;20.70;99.90;;;;;;4964291;28;20562;-81
2023/09/13 12:43:57;;;;;;;1.63;0.70;;;20.90;99.90;;;;;;4967435;28;20057;-81